Time;durP1;ratioP1;P1;durP2;ratioP2;P2;SDS_P1;SDS_P2;PMS_P1;PMS_P2;Temp;Humidity;BMP_temperature;BMP_pressure;BME280_temperature;BME280_humidity;BME280_pressure;Samples;Min_cycle;Max_cycle;Signal;HPM_P1;HPM_P2
2023/09/25 03:02:18;;;;;;;0.80;0.60;;;22.00;47.20;;;;;;5007911;23;46223;-80
2023/09/25 03:04:45;;;;;;;0.70;0.60;;;22.00;47.20;;;;;;4881262;29;45542;-82
2023/09/25 03:07:10;;;;;;;1.60;0.75;;;22.00;47.10;;;;;;4863295;29;45540;-83
2023/09/25 03:09:36;;;;;;;1.03;0.60;;;22.00;47.10;;;;;;4854160;29;46423;-79
2023/09/25 03:12:02;;;;;;;1.30;0.70;;;22.00;47.10;;;;;;4877081;29;44976;-79
2023/09/25 03:14:28;;;;;;;1.35;0.70;;;22.00;47.20;;;;;;4870472;29;44867;-88
2023/09/25 03:16:53;;;;;;;0.97;0.80;;;22.00;47.10;;;;;;4863111;29;45691;-82
2023/09/25 03:19:19;;;;;;;1.33;0.70;;;22.00;47.10;;;;;;4868190;29;46409;-81
2023/09/25 03:21:45;;;;;;;1.02;0.73;;;21.90;47.00;;;;;;4864745;29;44936;-79
2023/09/25 03:24:11;;;;;;;0.77;0.52;;;22.00;47.10;;;;;;4866355;29;45565;-87
2023/09/25 03:26:39;;;;;;;1.20;0.70;;;22.00;47.10;;;;;;4836182;29;44993;-81
2023/09/25 03:29:06;;;;;;;0.90;0.70;;;21.90;47.00;;;;;;4851967;29;45430;-89
2023/09/25 03:31:33;;;;;;;0.80;0.70;;;21.90;47.00;;;;;;4846518;29;45167;-82
2023/09/25 03:33:58;;;;;;;1.05;0.70;;;22.00;47.10;;;;;;4862481;29;45374;-85
2023/09/25 03:36:24;;;;;;;0.77;0.70;;;22.00;47.00;;;;;;4845772;29;46171;-87
2023/09/25 03:38:50;;;;;;;0.77;0.70;;;21.90;47.00;;;;;;4850601;29;46006;-80
2023/09/25 03:41:16;;;;;;;1.02;0.65;;;21.90;46.90;;;;;;4851439;29;44863;-85
2023/09/25 03:43:41;;;;;;;1.55;0.70;;;22.00;47.00;;;;;;4868083;29;45363;-89
2023/09/25 03:46:07;;;;;;;1.38;0.70;;;21.90;46.90;;;;;;4830344;29;46062;-87
2023/09/25 03:48:34;;;;;;;0.90;0.80;;;22.00;46.90;;;;;;4843191;29;47105;-86
2023/09/25 03:51:00;;;;;;;2.20;0.80;;;21.90;46.90;;;;;;4845148;29;44971;-81
2023/09/25 03:53:26;;;;;;;1.10;0.80;;;21.90;47.00;;;;;;4849677;29;45463;-90
2023/09/25 03:55:52;;;;;;;1.70;0.90;;;21.90;46.90;;;;;;4859406;29;45293;-89
2023/09/25 03:58:18;;;;;;;1.10;1.00;;;21.90;46.90;;;;;;4859685;29;45341;-87
2023/09/25 04:00:44;;;;;;;1.20;0.75;;;21.90;46.90;;;;;;4858227;29;45405;-81
2023/09/25 04:03:10;;;;;;;1.20;0.77;;;22.00;46.90;;;;;;4819039;29;45129;-82
2023/09/25 04:05:36;;;;;;;1.67;0.80;;;21.90;46.90;;;;;;4842413;29;45174;-82
2023/09/25 04:08:01;;;;;;;2.20;0.90;;;21.90;46.90;;;;;;4837892;29;46140;-81
2023/09/25 04:10:27;;;;;;;1.40;0.90;;;21.90;46.90;;;;;;4849192;29;45438;-85
2023/09/25 04:12:55;;;;;;;1.55;0.90;;;21.90;46.80;;;;;;4852863;29;45168;-91
2023/09/25 04:15:25;;;;;;;1.10;0.87;;;21.90;46.80;;;;;;4841139;29;45312;-82
2023/09/25 04:17:51;;;;;;;1.00;0.90;;;21.90;46.80;;;;;;4821623;29;47037;-87
2023/09/25 04:20:24;;;;;;;1.35;0.77;;;21.90;46.80;;;;;;4827743;29;45677;-86
2023/09/25 04:22:51;;;;;;;1.45;0.80;;;21.90;46.80;;;;;;4851515;29;45509;-82
2023/09/25 04:25:20;;;;;;;1.00;0.85;;;21.90;46.80;;;;;;4832584;29;44841;-85
2023/09/25 04:27:47;;;;;;;1.42;0.85;;;21.90;46.80;;;;;;4846560;29;45408;-88
2023/09/25 04:30:15;;;;;;;0.87;0.80;;;21.90;46.70;;;;;;4838668;29;45566;-92
2023/09/25 04:32:53;;;;;;;1.13;0.73;;;21.90;46.70;;;;;;4842121;29;45433;-83
2023/09/25 04:35:20;;;;;;;2.78;0.82;;;21.90;46.70;;;;;;4853977;29;45247;-85
2023/09/25 04:37:45;;;;;;;1.90;0.77;;;21.90;46.70;;;;;;4829758;29;45963;-86
2023/09/25 04:40:29;;;;;;;2.93;0.80;;;21.90;46.70;;;;;;4839202;29;45239;-83
2023/09/25 04:42:56;;;;;;;0.80;0.80;;;21.80;46.60;;;;;;4861973;29;45193;-86
2023/09/25 04:45:23;;;;;;;1.38;0.90;;;21.90;46.70;;;;;;4846978;29;45417;-80
2023/09/25 04:47:51;;;;;;;1.92;0.93;;;21.80;46.60;;;;;;4834591;29;46152;-82
2023/09/25 04:50:17;;;;;;;1.40;0.80;;;21.80;46.70;;;;;;4844762;29;45772;-84
2023/09/25 04:52:48;;;;;;;1.70;1.00;;;21.90;46.70;;;;;;4853852;29;45354;-88
2023/09/25 04:55:14;;;;;;;1.03;0.87;;;21.80;46.60;;;;;;4846310;29;45454;-84
2023/09/25 04:57:40;;;;;;;2.15;1.00;;;21.90;46.70;;;;;;4852032;29;45687;-82
2023/09/25 05:00:24;;;;;;;1.60;0.80;;;21.80;46.60;;;;;;4815231;29;45439;-87
2023/09/25 05:02:50;;;;;;;1.35;0.90;;;21.80;46.60;;;;;;4863394;29;45403;-82
2023/09/25 05:05:17;;;;;;;2.65;0.90;;;21.80;46.60;;;;;;4832091;29;45132;-81
2023/09/25 05:07:44;;;;;;;1.52;0.95;;;21.80;46.50;;;;;;4853953;29;46395;-82
2023/09/25 05:10:10;;;;;;;1.80;1.00;;;21.80;46.50;;;;;;4862280;29;45112;-83
2023/09/25 05:12:37;;;;;;;2.90;0.90;;;21.80;46.60;;;;;;4849919;29;45343;-83
2023/09/25 05:15:07;;;;;;;1.17;0.70;;;21.80;46.50;;;;;;4855081;29;44979;-90
2023/09/25 05:17:38;;;;;;;0.85;0.80;;;21.80;46.50;;;;;;4834442;29;45577;-86
2023/09/25 05:20:26;;;;;;;0.70;0.70;;;21.80;46.50;;;;;;4845080;29;45441;-89
2023/09/25 05:22:53;;;;;;;2.00;0.90;;;21.80;46.50;;;;;;4878998;29;45604;-81
2023/09/25 05:25:19;;;;;;;2.30;0.70;;;21.80;46.50;;;;;;4841008;29;45708;-85
2023/09/25 05:27:46;;;;;;;1.05;0.75;;;21.80;46.50;;;;;;4866455;29;46396;-84
2023/09/25 05:30:17;;;;;;;1.20;0.80;;;21.80;46.50;;;;;;4846079;29;45458;-82
2023/09/25 05:32:47;;;;;;;1.25;0.80;;;21.80;46.40;;;;;;4854822;29;45131;-81
2023/09/25 05:35:14;;;;;;;1.27;0.90;;;21.80;46.40;;;;;;4851126;29;45153;-91
2023/09/25 05:37:41;;;;;;;0.98;0.88;;;21.80;46.40;;;;;;4864862;29;46488;-83
2023/09/25 05:40:10;;;;;;;2.03;1.10;;;21.80;46.40;;;;;;4848870;29;45150;-82
2023/09/25 05:42:40;;;;;;;1.42;0.90;;;21.80;46.40;;;;;;4864450;29;46072;-83
2023/09/25 05:45:06;;;;;;;2.00;0.80;;;21.80;46.40;;;;;;4868025;29;45274;-88
2023/09/25 05:47:33;;;;;;;2.05;1.00;;;21.80;46.40;;;;;;4855300;29;45172;-89
2023/09/25 05:49:59;;;;;;;1.88;1.10;;;21.80;46.40;;;;;;4860052;29;45581;-88
2023/09/25 05:52:25;;;;;;;1.15;0.70;;;21.80;46.40;;;;;;4862548;29;45652;-84
2023/09/25 05:54:51;;;;;;;1.13;0.80;;;21.80;46.30;;;;;;4867815;29;45748;-84
2023/09/25 05:57:18;;;;;;;1.10;0.80;;;21.80;46.30;;;;;;4845410;29;46379;-85
2023/09/25 05:59:44;;;;;;;1.02;0.80;;;21.80;46.40;;;;;;4832365;29;45397;-82
2023/09/25 06:02:10;;;;;;;2.00;0.95;;;21.80;46.30;;;;;;4860323;29;45423;-88
2023/09/25 06:04:38;;;;;;;1.20;0.80;;;21.70;46.30;;;;;;4846834;29;45389;-82
2023/09/25 06:07:06;;;;;;;1.08;0.95;;;21.80;46.30;;;;;;4867364;29;46575;-80
2023/09/25 06:09:32;;;;;;;1.53;0.70;;;21.80;46.30;;;;;;4861688;29;45245;-85
2023/09/25 06:11:58;;;;;;;1.40;0.90;;;21.80;46.30;;;;;;4850819;29;45309;-81
2023/09/25 06:14:25;;;;;;;1.60;0.87;;;21.80;46.30;;;;;;4847363;29;45324;-84
2023/09/25 06:16:54;;;;;;;2.33;0.90;;;21.80;46.30;;;;;;4864118;29;45940;-80
2023/09/25 06:19:20;;;;;;;2.57;1.47;;;21.80;46.30;;;;;;4867545;29;44872;-83
2023/09/25 06:21:47;;;;;;;1.55;1.08;;;21.80;46.30;;;;;;4867272;29;45299;-86
2023/09/25 06:24:13;;;;;;;1.70;1.27;;;21.80;46.30;;;;;;4831333;29;45510;-87
2023/09/25 06:26:40;;;;;;;2.30;1.25;;;21.70;46.30;;;;;;4855492;29;47033;-83
2023/09/25 06:29:09;;;;;;;2.00;1.13;;;21.70;46.30;;;;;;4854661;29;45201;-86
2023/09/25 06:31:36;;;;;;;1.43;1.17;;;21.70;46.30;;;;;;4848180;29;44900;-80
2023/09/25 06:34:03;;;;;;;2.13;1.50;;;21.70;46.20;;;;;;4822196;29;45233;-83
2023/09/25 06:36:29;;;;;;;2.15;1.48;;;21.70;46.30;;;;;;4834484;29;47413;-83
2023/09/25 06:38:54;;;;;;;2.22;1.58;;;21.70;46.30;;;;;;4851062;29;45576;-86
2023/09/25 06:41:20;;;;;;;2.07;1.50;;;21.70;46.20;;;;;;4846105;29;45750;-82
2023/09/25 06:43:46;;;;;;;2.78;1.60;;;21.70;46.30;;;;;;4865476;29;46063;-87
2023/09/25 06:46:12;;;;;;;2.67;1.70;;;21.80;46.30;;;;;;4826922;29;46418;-82
2023/09/25 06:48:38;;;;;;;3.35;1.70;;;21.70;46.30;;;;;;4872558;29;45603;-81
2023/09/25 06:51:05;;;;;;;2.73;1.70;;;21.70;46.30;;;;;;4849838;29;45194;-84
2023/09/25 06:53:31;;;;;;;4.20;1.83;;;21.70;46.30;;;;;;4853709;29;45228;-85
2023/09/25 06:55:59;;;;;;;3.63;2.20;;;21.70;46.30;;;;;;4864492;29;45622;-82
2023/09/25 06:58:25;;;;;;;2.77;2.00;;;21.70;46.30;;;;;;4843052;29;45232;-84
2023/09/25 07:00:51;;;;;;;4.03;2.33;;;21.70;46.30;;;;;;4866157;29;45257;-84
2023/09/25 07:03:17;;;;;;;4.00;2.38;;;21.70;46.30;;;;;;4855297;29;45262;-83
2023/09/25 07:05:44;;;;;;;4.73;2.20;;;21.70;46.30;;;;;;4837633;29;47355;-81
2023/09/25 07:08:11;;;;;;;4.57;2.55;;;21.70;46.30;;;;;;4868370;29;45017;-82
2023/09/25 07:10:37;;;;;;;3.60;2.50;;;21.70;46.30;;;;;;4868133;29;45447;-86
2023/09/25 07:13:03;;;;;;;4.00;2.40;;;21.70;46.30;;;;;;4867224;29;46360;-82
2023/09/25 07:15:30;;;;;;;3.70;2.30;;;21.70;46.30;;;;;;4865657;29;45394;-81
2023/09/25 07:17:56;;;;;;;4.72;2.20;;;21.70;46.30;;;;;;4856993;29;45279;-83
2023/09/25 07:20:22;;;;;;;4.57;2.20;;;21.70;46.30;;;;;;4838995;29;45305;-84
2023/09/25 07:22:48;;;;;;;3.73;2.20;;;21.70;46.30;;;;;;4841383;29;45267;-89
2023/09/25 07:25:14;;;;;;;4.10;2.27;;;21.70;46.30;;;;;;4870989;29;45974;-88
2023/09/25 07:27:40;;;;;;;3.67;2.37;;;21.70;46.30;;;;;;4852973;29;45769;-82
2023/09/25 07:30:08;;;;;;;5.30;2.67;;;21.70;46.30;;;;;;4864700;29;45449;-86
2023/09/25 07:32:34;;;;;;;5.05;2.42;;;21.70;46.40;;;;;;4832973;29;45455;-82
2023/09/25 07:35:04;;;;;;;4.67;2.50;;;21.70;46.30;;;;;;4857833;29;45554;-84
2023/09/25 07:37:29;;;;;;;4.20;2.30;;;21.70;46.30;;;;;;4853483;29;44981;-79
2023/09/25 07:39:56;;;;;;;4.50;2.40;;;21.70;46.40;;;;;;4860719;29;45497;-84
2023/09/25 07:42:23;;;;;;;4.67;2.30;;;21.70;46.40;;;;;;4865793;29;45441;-81
2023/09/25 07:44:48;;;;;;;3.65;2.03;;;21.70;46.40;;;;;;4862430;29;45353;-82
2023/09/25 07:47:17;;;;;;;4.40;2.10;;;21.70;46.40;;;;;;4843325;29;46372;-87
2023/09/25 07:49:47;;;;;;;3.63;2.10;;;21.70;46.40;;;;;;4868303;29;45074;-83
2023/09/25 07:52:16;;;;;;;3.20;2.03;;;21.70;46.40;;;;;;4860348;29;45095;-84
2023/09/25 07:54:44;;;;;;;8.10;2.60;;;21.70;46.40;;;;;;4865877;29;45640;-81
2023/09/25 07:57:14;;;;;;;4.15;2.38;;;21.70;46.40;;;;;;4867286;29;44687;-83
2023/09/25 07:59:41;;;;;;;3.72;2.10;;;21.70;46.40;;;;;;4844148;29;45382;-83
2023/09/25 08:02:07;;;;;;;3.45;2.10;;;21.70;46.40;;;;;;4846152;29;45632;-84
2023/09/25 08:04:35;;;;;;;4.28;2.50;;;21.70;46.40;;;;;;4831031;29;48270;-81
2023/09/25 08:07:02;;;;;;;3.45;2.00;;;21.70;46.40;;;;;;4852995;29;45215;-80
2023/09/25 08:09:27;;;;;;;3.03;2.00;;;21.70;46.40;;;;;;4841441;29;44659;-84
2023/09/25 08:11:53;;;;;;;3.80;2.07;;;21.70;46.40;;;;;;4859740;29;45387;-80
2023/09/25 08:14:20;;;;;;;3.85;2.17;;;21.70;46.40;;;;;;4845368;29;45548;-81
2023/09/25 08:16:46;;;;;;;3.10;1.97;;;21.70;46.50;;;;;;4864098;23;45525;-43
2023/09/25 08:19:12;;;;;;;4.03;2.20;;;21.70;46.40;;;;;;4876530;28;45274;-44
2023/09/25 08:21:37;;;;;;;3.20;1.97;;;21.60;46.40;;;;;;4861905;28;45584;-44
2023/09/25 08:24:03;;;;;;;2.87;2.00;;;21.70;46.40;;;;;;4854815;29;45852;-43
2023/09/25 08:26:29;;;;;;;3.70;1.93;;;21.70;46.50;;;;;;4848081;29;45285;-44
2023/09/25 08:28:57;;;;;;;3.45;2.10;;;21.60;46.40;;;;;;4861579;29;48138;-44
2023/09/25 08:31:23;;;;;;;3.43;2.20;;;21.70;46.50;;;;;;4841194;29;45273;-44
2023/09/25 08:33:49;;;;;;;3.10;2.10;;;21.70;46.50;;;;;;4852741;29;45235;-43
2023/09/25 08:36:14;;;;;;;2.77;1.90;;;21.70;46.50;;;;;;4854612;29;45128;-44
2023/09/25 08:38:40;;;;;;;3.77;1.93;;;21.70;46.50;;;;;;4880892;28;45571;-43
2023/09/25 08:41:06;;;;;;;2.17;1.73;;;21.70;46.50;;;;;;4857189;29;45111;-43
2023/09/25 08:43:31;;;;;;;2.80;1.70;;;21.70;46.50;;;;;;4858771;29;46114;-43
2023/09/25 08:45:57;;;;;;;2.80;1.77;;;21.70;46.50;;;;;;4843613;29;45295;-44
2023/09/25 08:48:23;;;;;;;3.40;1.83;;;21.70;46.50;;;;;;4858522;29;45274;-44
2023/09/25 08:50:48;;;;;;;3.53;1.87;;;21.70;46.50;;;;;;4853761;29;45262;-43
2023/09/25 08:53:14;;;;;;;3.92;1.65;;;21.60;46.50;;;;;;4861839;29;45099;-44
2023/09/25 08:55:40;;;;;;;2.70;1.90;;;21.70;46.50;;;;;;4831123;29;45453;-45
2023/09/25 08:58:09;;;;;;;3.55;1.77;;;21.70;46.50;;;;;;4858408;29;46162;-44
2023/09/25 09:00:35;;;;;;;2.77;1.80;;;21.70;46.60;;;;;;4844157;29;45539;-44
2023/09/25 09:03:00;;;;;;;2.07;1.70;;;21.60;46.50;;;;;;4854737;29;45437;-45
2023/09/25 09:05:26;;;;;;;3.10;1.90;;;21.70;46.60;;;;;;4847482;29;45403;-44
2023/09/25 09:07:56;;;;;;;3.50;1.80;;;21.70;46.50;;;;;;4855667;29;45377;-43
2023/09/25 09:10:21;;;;;;;2.53;1.58;;;21.70;46.60;;;;;;4853230;29;45163;-43
2023/09/25 09:12:52;;;;;;;2.30;1.55;;;21.70;46.60;;;;;;4865293;29;45444;-43
2023/09/25 09:15:26;;;;;;;2.65;1.55;;;21.70;46.60;;;;;;4840304;29;45532;-44
2023/09/25 09:17:52;;;;;;;2.85;1.60;;;21.70;46.60;;;;;;4855423;29;45473;-44
2023/09/25 09:20:19;;;;;;;2.92;1.58;;;21.60;46.60;;;;;;4855579;29;44970;-44
2023/09/25 09:22:54;;;;;;;1.80;1.52;;;21.70;46.60;;;;;;4846598;29;45969;-44
2023/09/25 09:25:24;;;;;;;2.40;1.48;;;21.70;46.60;;;;;;4846583;29;45539;-44
2023/09/25 09:27:50;;;;;;;2.90;1.55;;;21.70;46.60;;;;;;4857062;29;45265;-43
2023/09/25 09:30:23;;;;;;;2.60;1.67;;;21.60;46.60;;;;;;4847423;29;45383;-44
2023/09/25 09:32:52;;;;;;;2.92;1.70;;;21.70;46.60;;;;;;4856477;29;46016;-44
2023/09/25 09:35:24;;;;;;;2.60;1.50;;;21.70;46.60;;;;;;4853567;29;45185;-44
2023/09/25 09:37:56;;;;;;;3.00;1.60;;;21.70;46.70;;;;;;4841216;29;45393;-43
2023/09/25 09:40:26;;;;;;;2.53;1.40;;;21.70;46.70;;;;;;4853345;29;46011;-44
2023/09/25 09:42:52;;;;;;;1.80;1.30;;;21.70;46.70;;;;;;4859995;29;45507;-45
2023/09/25 09:45:21;;;;;;;1.80;1.42;;;21.70;46.70;;;;;;4841987;29;46951;-44
2023/09/25 09:47:48;;;;;;;2.43;1.60;;;21.60;46.70;;;;;;4850421;29;45248;-43
2023/09/25 09:50:24;;;;;;;2.40;1.80;;;21.70;46.70;;;;;;4855808;29;45548;-44
2023/09/25 09:52:50;;;;;;;3.93;1.40;;;21.70;46.70;;;;;;4856648;29;45714;-45
2023/09/25 09:55:15;;;;;;;1.87;1.40;;;21.70;46.70;;;;;;4857639;29;45212;-43
2023/09/25 09:57:41;;;;;;;2.17;1.52;;;21.70;46.70;;;;;;4856748;29;45836;-44
2023/09/25 10:00:08;;;;;;;2.17;1.40;;;21.70;46.70;;;;;;4855497;29;45836;-45
2023/09/25 10:02:33;;;;;;;1.90;1.33;;;21.70;46.80;;;;;;4828980;29;47906;-43
2023/09/25 10:04:59;;;;;;;2.10;1.50;;;21.70;46.80;;;;;;4857444;29;45203;-43
2023/09/25 10:07:26;;;;;;;2.42;1.58;;;21.70;46.80;;;;;;4848179;29;45759;-44
2023/09/25 10:09:58;;;;;;;2.85;1.60;;;21.70;46.80;;;;;;4862916;29;45481;-43
2023/09/25 10:12:36;;;;;;;1.55;1.30;;;21.70;46.80;;;;;;4854814;29;45374;-45
2023/09/25 10:15:13;;;;;;;1.87;1.47;;;21.70;46.80;;;;;;4856985;29;45567;-44
2023/09/25 10:17:42;;;;;;;2.08;1.33;;;21.70;46.80;;;;;;4834115;29;45663;-44
2023/09/25 10:20:33;;;;;;;2.03;1.20;;;21.70;46.80;;;;;;4829213;29;45910;-44
2023/09/25 10:23:21;;;;;;;2.38;1.42;;;21.80;46.90;;;;;;4844395;29;45161;-44
2023/09/25 10:25:57;;;;;;;1.95;1.10;;;21.70;46.80;;;;;;4848082;29;45278;-43
2023/09/25 10:28:31;;;;;;;1.75;1.30;;;21.80;46.90;;;;;;4824252;29;46188;-43
2023/09/25 10:30:57;;;;;;;1.73;1.27;;;21.80;46.90;;;;;;4842313;28;44813;-44
2023/09/25 10:33:24;;;;;;;2.53;1.40;;;21.80;46.90;;;;;;4859847;29;45048;-42
2023/09/25 10:35:50;;;;;;;2.72;1.20;;;21.80;46.90;;;;;;4846899;29;45074;-43
2023/09/25 10:38:21;;;;;;;1.37;1.10;;;21.80;46.90;;;;;;4865321;29;46607;-44
2023/09/25 10:40:49;;;;;;;2.40;1.38;;;21.80;46.90;;;;;;4873205;23;46072;-44
2023/09/25 10:43:16;;;;;;;2.03;1.30;;;21.80;46.90;;;;;;4885399;28;45769;-43
2023/09/25 10:45:41;;;;;;;1.63;1.27;;;21.80;46.90;;;;;;4860707;28;45291;-44
2023/09/25 10:48:07;;;;;;;1.77;1.10;;;21.80;47.00;;;;;;4878318;28;45802;-43
2023/09/25 10:50:32;;;;;;;2.70;1.10;;;21.80;47.00;;;;;;4866780;28;45445;-44
2023/09/25 10:52:58;;;;;;;2.40;1.20;;;21.80;47.00;;;;;;4878103;28;45195;-45
2023/09/25 10:55:24;;;;;;;1.83;1.38;;;21.80;47.00;;;;;;4867291;28;44733;-44
2023/09/25 10:57:50;;;;;;;2.08;1.10;;;21.80;47.00;;;;;;4878924;28;45206;-43
2023/09/25 11:00:18;;;;;;;1.80;1.15;;;21.80;47.00;;;;;;4867134;28;45381;-43
2023/09/25 11:02:44;;;;;;;1.00;0.80;;;21.80;47.00;;;;;;4868275;28;45776;-44
2023/09/25 11:05:10;;;;;;;1.88;0.90;;;21.80;47.00;;;;;;4872144;28;45330;-43
2023/09/25 11:07:36;;;;;;;1.63;1.00;;;21.80;47.00;;;;;;4878125;28;45721;-45
2023/09/25 11:10:04;;;;;;;1.50;1.10;;;21.80;47.00;;;;;;4880653;28;45356;-43
2023/09/25 11:12:30;;;;;;;1.40;0.90;;;21.80;47.00;;;;;;4876148;28;46496;-43
2023/09/25 11:14:57;;;;;;;1.10;0.90;;;21.80;47.10;;;;;;4875397;28;46238;-42
2023/09/25 11:17:23;;;;;;;1.15;1.00;;;21.80;47.10;;;;;;4863011;28;45642;-43
2023/09/25 11:19:48;;;;;;;2.50;1.00;;;21.80;47.10;;;;;;4875969;28;45333;-42
2023/09/25 11:22:14;;;;;;;1.40;1.00;;;21.80;47.10;;;;;;4868262;28;45646;-42
2023/09/25 11:24:40;;;;;;;1.67;1.10;;;21.80;47.10;;;;;;4860203;28;45389;-42
2023/09/25 11:27:08;;;;;;;2.40;1.00;;;21.80;47.10;;;;;;4873540;28;46199;-42
2023/09/25 11:29:37;;;;;;;1.63;1.00;;;21.80;47.10;;;;;;4877397;28;45406;-43
2023/09/25 11:32:02;;;;;;;1.95;0.98;;;21.80;47.10;;;;;;4855000;28;44949;-42
2023/09/25 11:34:28;;;;;;;1.37;0.93;;;21.80;47.10;;;;;;4866928;29;45284;-43
2023/09/25 11:36:54;;;;;;;1.67;0.93;;;21.90;47.20;;;;;;4864413;28;45292;-42
2023/09/25 11:39:20;;;;;;;1.60;1.00;;;21.90;47.20;;;;;;4881837;28;46621;-43
2023/09/25 11:41:45;;;;;;;1.40;1.00;;;21.80;47.10;;;;;;4866981;28;45170;-42
2023/09/25 11:44:11;;;;;;;1.75;1.13;;;21.90;47.20;;;;;;4877715;28;45314;-43
2023/09/25 11:46:37;;;;;;;1.27;0.97;;;21.90;47.20;;;;;;4860316;28;45499;-43
2023/09/25 11:49:03;;;;;;;1.60;0.97;;;21.80;47.60;;;;;;4880967;28;45513;-43
2023/09/25 11:51:28;;;;;;;1.50;0.98;;;21.90;47.30;;;;;;4870912;28;45317;-42
2023/09/25 11:53:54;;;;;;;1.75;1.00;;;21.90;47.20;;;;;;4876135;28;45200;-42
2023/09/25 11:56:21;;;;;;;1.00;0.90;;;21.90;47.20;;;;;;4875088;28;45437;-42
2023/09/25 11:58:46;;;;;;;1.75;0.75;;;21.90;47.30;;;;;;4880248;28;45968;-42
2023/09/25 12:01:12;;;;;;;1.20;0.80;;;21.90;47.30;;;;;;4856214;28;45809;-44
2023/09/25 12:03:41;;;;;;;1.30;0.97;;;21.90;47.30;;;;;;4873321;28;45251;-43
2023/09/25 12:06:06;;;;;;;1.20;1.00;;;21.90;47.30;;;;;;4871282;28;45250;-42
2023/09/25 12:08:33;;;;;;;1.40;0.90;;;21.90;47.30;;;;;;4871075;28;45364;-42
2023/09/25 12:10:59;;;;;;;0.90;0.65;;;21.90;47.30;;;;;;4866987;28;45060;-43
2023/09/25 12:13:24;;;;;;;0.97;0.87;;;21.90;47.40;;;;;;4878868;28;45211;-42
2023/09/25 12:15:50;;;;;;;1.02;0.85;;;21.90;47.30;;;;;;4862227;28;45251;-43
2023/09/25 12:18:16;;;;;;;1.10;0.80;;;21.90;47.30;;;;;;4876076;28;44925;-43
2023/09/25 12:20:41;;;;;;;1.23;1.00;;;21.90;47.30;;;;;;4853861;29;45389;-43
2023/09/25 12:23:10;;;;;;;1.27;0.80;;;21.90;47.40;;;;;;4881016;28;45794;-43
2023/09/25 12:25:36;;;;;;;1.37;0.90;;;21.90;47.40;;;;;;4870080;28;45493;-43
2023/09/25 12:28:02;;;;;;;1.10;0.90;;;21.90;47.40;;;;;;4877247;28;44702;-42
2023/09/25 12:30:27;;;;;;;1.70;0.90;;;21.90;47.40;;;;;;4866633;28;45788;-43
2023/09/25 12:32:53;;;;;;;0.88;0.73;;;22.00;47.40;;;;;;4871710;28;45345;-42
2023/09/25 12:35:19;;;;;;;0.98;0.70;;;22.00;47.40;;;;;;4859745;29;45533;-43
2023/09/25 12:37:45;;;;;;;1.08;0.90;;;21.90;47.40;;;;;;4878399;28;45243;-43
2023/09/25 12:40:13;;;;;;;1.23;0.75;;;21.90;47.50;;;;;;4870799;28;46063;-43
2023/09/25 12:42:38;;;;;;;1.63;1.00;;;21.90;47.40;;;;;;4867406;29;45348;-42
2023/09/25 12:45:06;;;;;;;1.42;0.90;;;22.00;47.50;;;;;;4874930;28;45425;-43
2023/09/25 12:47:32;;;;;;;0.70;0.70;;;22.00;47.50;;;;;;4855644;29;45186;-42
2023/09/25 12:49:58;;;;;;;0.88;0.70;;;21.90;47.50;;;;;;4876163;28;46223;-43
2023/09/25 12:52:24;;;;;;;0.63;0.60;;;22.00;47.50;;;;;;4870617;28;45487;-43
2023/09/25 12:54:50;;;;;;;1.00;0.70;;;21.90;47.50;;;;;;4873402;28;45252;-42
2023/09/25 12:57:16;;;;;;;0.83;0.70;;;21.90;47.50;;;;;;4869158;28;45139;-43
2023/09/25 12:59:43;;;;;;;0.90;0.60;;;21.90;47.50;;;;;;4880524;28;46090;-43
2023/09/25 13:02:09;;;;;;;0.88;0.88;;;22.00;47.60;;;;;;4860816;28;45233;-42
2023/09/25 13:04:34;;;;;;;1.02;0.75;;;22.00;47.60;;;;;;4878246;28;45171;-43
2023/09/25 13:07:00;;;;;;;1.50;0.85;;;21.90;47.50;;;;;;4865541;28;47764;-44
2023/09/25 13:09:25;;;;;;;0.80;0.77;;;21.90;47.50;;;;;;4879290;28;45592;-42
2023/09/25 13:11:51;;;;;;;1.00;0.80;;;22.00;47.60;;;;;;4862675;28;44722;-43
2023/09/25 13:14:16;;;;;;;1.05;0.70;;;22.00;47.60;;;;;;4871640;28;45322;-43
2023/09/25 13:16:43;;;;;;;0.95;0.80;;;22.00;47.60;;;;;;4859424;28;45877;-43
2023/09/25 13:19:09;;;;;;;0.70;0.60;;;22.00;47.60;;;;;;4874958;28;46624;-43
2023/09/25 13:21:35;;;;;;;1.08;0.75;;;22.00;47.60;;;;;;4869293;28;45264;-43
2023/09/25 13:24:00;;;;;;;0.77;0.63;;;22.00;47.70;;;;;;4875993;28;45556;-43
2023/09/25 13:26:26;;;;;;;1.10;0.80;;;22.00;47.70;;;;;;4869924;28;45520;-42
2023/09/25 13:28:53;;;;;;;1.17;0.77;;;21.90;47.60;;;;;;4879095;28;45405;-42
2023/09/25 13:31:19;;;;;;;1.15;0.85;;;22.00;47.70;;;;;;4857825;28;45435;-42
2023/09/25 13:33:44;;;;;;;1.20;0.75;;;22.00;47.70;;;;;;4873397;28;45464;-44
2023/09/25 13:36:10;;;;;;;0.90;0.70;;;22.00;47.70;;;;;;4859292;28;45431;-42
2023/09/25 13:38:36;;;;;;;1.23;0.80;;;22.00;47.70;;;;;;4880874;28;45315;-42
2023/09/25 13:41:04;;;;;;;0.90;0.70;;;22.00;47.70;;;;;;4861896;28;45295;-41
2023/09/25 13:43:30;;;;;;;1.00;0.80;;;22.00;47.70;;;;;;4874184;28;45410;-43
2023/09/25 13:45:55;;;;;;;1.05;0.70;;;22.00;47.70;;;;;;4855261;28;45456;-43
2023/09/25 13:48:21;;;;;;;0.70;0.60;;;22.00;47.70;;;;;;4877512;28;45246;-43
2023/09/25 13:50:47;;;;;;;0.90;0.60;;;22.00;47.80;;;;;;4868032;28;45978;-42
2023/09/25 13:53:13;;;;;;;0.90;0.75;;;22.00;47.80;;;;;;4861224;29;45516;-42
2023/09/25 13:55:38;;;;;;;0.95;0.70;;;22.00;47.80;;;;;;4868169;28;45316;-42
2023/09/25 13:58:05;;;;;;;0.73;0.70;;;22.00;47.80;;;;;;4876484;28;48130;-43
2023/09/25 14:00:30;;;;;;;0.90;0.70;;;22.00;47.80;;;;;;4868404;28;45370;-43
2023/09/25 14:02:56;;;;;;;0.88;0.80;;;22.00;47.80;;;;;;4869807;28;45488;-43
2023/09/25 14:05:22;;;;;;;0.90;0.67;;;22.00;47.80;;;;;;4874292;28;45542;-43
2023/09/25 14:07:48;;;;;;;1.17;0.73;;;22.00;47.80;;;;;;4878381;28;45667;-43
2023/09/25 14:10:13;;;;;;;0.77;0.70;;;22.00;47.80;;;;;;4868016;28;45434;-46
2023/09/25 14:12:44;;;;;;;2.00;0.70;;;22.00;47.90;;;;;;4863069;28;45243;-43
2023/09/25 14:15:11;;;;;;;0.90;0.80;;;22.00;47.90;;;;;;4865070;28;46522;-43
2023/09/25 14:17:38;;;;;;;1.00;0.80;;;22.00;47.90;;;;;;4866547;28;47402;-43
2023/09/25 14:20:04;;;;;;;1.73;0.60;;;22.00;47.90;;;;;;4865990;28;46762;-44
2023/09/25 14:22:31;;;;;;;1.00;0.70;;;22.00;47.90;;;;;;4849872;29;44761;-44
2023/09/25 14:24:59;;;;;;;2.10;0.80;;;22.00;47.90;;;;;;4869354;28;45504;-45
2023/09/25 14:27:25;;;;;;;1.00;0.80;;;22.00;47.90;;;;;;4865122;28;45385;-44
2023/09/25 14:29:51;;;;;;;1.40;0.73;;;22.00;47.90;;;;;;4870094;28;45242;-43
2023/09/25 14:32:16;;;;;;;0.80;0.73;;;22.00;48.00;;;;;;4856298;28;45584;-45
2023/09/25 14:34:42;;;;;;;0.90;0.67;;;22.00;47.90;;;;;;4866535;28;45312;-44
2023/09/25 14:37:07;;;;;;;0.93;0.70;;;22.00;48.00;;;;;;4855780;28;46516;-45
2023/09/25 14:39:33;;;;;;;1.10;0.80;;;22.00;48.00;;;;;;4855636;28;45733;-45
2023/09/25 14:41:58;;;;;;;1.10;0.80;;;22.00;48.00;;;;;;4842647;29;44811;-45
2023/09/25 14:44:25;;;;;;;2.03;0.70;;;22.00;48.00;;;;;;4865664;28;45603;-43
2023/09/25 14:46:51;;;;;;;0.80;0.80;;;22.00;48.00;;;;;;4863096;29;45548;-44
2023/09/25 14:49:17;;;;;;;0.90;0.70;;;22.00;48.00;;;;;;4867151;28;45117;-44
2023/09/25 14:51:42;;;;;;;0.90;0.70;;;22.00;48.00;;;;;;4859461;28;45795;-43
2023/09/25 14:54:08;;;;;;;0.80;0.68;;;22.00;48.10;;;;;;4848589;28;45994;-44
2023/09/25 14:56:33;;;;;;;1.13;0.80;;;22.00;48.00;;;;;;4860758;28;45342;-43
2023/09/25 14:58:59;;;;;;;1.63;0.73;;;22.00;48.00;;;;;;4867886;28;45530;-43
2023/09/25 15:01:24;;;;;;;0.80;0.63;;;22.00;48.00;;;;;;4837363;29;45385;-44
2023/09/25 15:03:50;;;;;;;1.00;0.80;;;22.00;48.00;;;;;;4864968;28;45341;-43
2023/09/25 15:06:15;;;;;;;0.70;0.70;;;22.00;48.00;;;;;;4852158;28;46508;-45
2023/09/25 15:08:41;;;;;;;1.00;0.60;;;22.00;48.10;;;;;;4870852;28;45227;-43
2023/09/25 15:11:07;;;;;;;1.83;0.75;;;22.00;48.10;;;;;;4854653;28;45345;-43
2023/09/25 15:13:32;;;;;;;1.20;0.68;;;22.00;48.10;;;;;;4866775;28;44946;-45
2023/09/25 15:15:58;;;;;;;0.95;0.70;;;22.00;48.10;;;;;;4855938;28;46233;-43
2023/09/25 15:18:23;;;;;;;0.95;0.70;;;22.00;48.10;;;;;;4865769;28;45167;-43
2023/09/25 15:20:49;;;;;;;0.85;0.73;;;22.00;48.10;;;;;;4851094;28;46118;-43
2023/09/25 15:23:14;;;;;;;0.95;0.80;;;22.00;48.10;;;;;;4865609;28;45607;-44
2023/09/25 15:25:42;;;;;;;1.67;0.90;;;22.00;48.10;;;;;;4847714;29;46566;-42
2023/09/25 15:28:08;;;;;;;0.82;0.70;;;22.00;48.10;;;;;;4868962;28;45934;-42
2023/09/25 15:30:34;;;;;;;1.10;0.90;;;22.00;48.10;;;;;;4863826;28;45797;-42
2023/09/25 15:33:00;;;;;;;0.85;0.68;;;22.00;48.10;;;;;;4855837;28;46056;-43
2023/09/25 15:35:26;;;;;;;1.02;0.90;;;22.00;48.10;;;;;;4857589;28;46455;-43
2023/09/25 15:37:52;;;;;;;1.50;0.70;;;22.00;48.10;;;;;;4866046;28;45722;-43
2023/09/25 15:40:22;;;;;;;1.30;0.80;;;22.00;48.10;;;;;;4863381;28;45486;-42
2023/09/25 15:42:49;;;;;;;1.13;0.80;;;22.00;48.10;;;;;;4873985;28;46466;-42
2023/09/25 15:45:15;;;;;;;0.70;0.68;;;22.00;48.20;;;;;;4860295;28;45253;-43
2023/09/25 15:47:40;;;;;;;1.10;0.70;;;22.00;48.10;;;;;;4851250;29;45665;-42